Time;durP1;ratioP1;P1;durP2;ratioP2;P2;SDS_P1;SDS_P2;PMS_P1;PMS_P2;Temp;Humidity;BMP_temperature;BMP_pressure;BME280_temperature;BME280_humidity;BME280_pressure;Samples;Min_cycle;Max_cycle;Signal;HPM_P1;HPM_P2
2022/03/30 00:00:52;;;;;;;9.53;3.87;;;2.40;61.90;;;;;;4953663;28;20466;-49
2022/03/30 00:03:20;;;;;;;5.63;3.20;;;2.40;67.20;;;;;;4955340;29;20494;-50
2022/03/30 00:05:47;;;;;;;10.63;3.33;;;2.40;63.80;;;;;;4956095;28;20532;-50
2022/03/30 00:08:13;;;;;;;7.60;3.10;;;2.40;62.50;;;;;;4958782;29;20502;-49
2022/03/30 00:10:40;;;;;;;9.50;3.80;;;2.40;56.20;;;;;;4957737;28;20492;-50
2022/03/30 00:13:08;;;;;;;9.60;3.03;;;2.30;59.90;;;;;;4951326;29;20550;-50
2022/03/30 00:15:35;;;;;;;16.70;4.20;;;2.30;60.50;;;;;;4955205;28;20470;-50
2022/03/30 00:18:01;;;;;;;8.90;2.83;;;2.20;57.30;;;;;;4952749;28;20498;-50
2022/03/30 00:20:29;;;;;;;3.93;2.50;;;2.20;55.10;;;;;;4950889;28;20506;-50
2022/03/30 00:22:56;;;;;;;7.40;3.83;;;2.20;55.30;;;;;;4952434;28;20553;-50
2022/03/30 00:25:22;;;;;;;6.50;3.03;;;2.10;53.60;;;;;;4957341;28;20887;-50
2022/03/30 00:27:49;;;;;;;9.63;2.87;;;2.00;51.00;;;;;;4950308;28;20497;-49
2022/03/30 00:30:18;;;;;;;8.87;3.63;;;2.00;47.20;;;;;;4952435;28;20529;-50
2022/03/30 00:32:45;;;;;;;9.07;3.23;;;2.00;50.90;;;;;;4953275;29;21042;-49
2022/03/30 00:35:13;;;;;;;9.17;3.70;;;2.00;49.80;;;;;;4948365;29;20463;-50
2022/03/30 00:37:41;;;;;;;12.17;4.67;;;2.00;46.90;;;;;;4953165;28;20478;-49
2022/03/30 00:40:10;;;;;;;6.53;3.40;;;2.00;41.60;;;;;;4955548;28;20531;-50
2022/03/30 00:42:37;;;;;;;7.60;3.13;;;1.80;41.90;;;;;;4954865;28;20566;-50
2022/03/30 00:45:09;;;;;;;7.80;3.93;;;1.80;38.70;;;;;;4955208;28;20561;-48
2022/03/30 00:47:36;;;;;;;3.47;2.80;;;1.80;38.80;;;;;;4956095;28;21071;-49
2022/03/30 00:50:03;;;;;;;7.27;3.40;;;1.80;34.70;;;;;;4961939;28;20470;-49
2022/03/30 00:52:30;;;;;;;10.83;4.00;;;1.70;33.60;;;;;;4961235;28;20496;-49
2022/03/30 00:54:58;;;;;;;13.37;3.67;;;1.70;32.30;;;;;;4953102;29;20462;-49
2022/03/30 00:57:25;;;;;;;7.83;3.63;;;1.60;31.20;;;;;;4961257;28;20520;-51
2022/03/30 00:59:52;;;;;;;8.23;3.80;;;1.60;28.90;;;;;;4956625;29;20462;-49
2022/03/30 01:02:19;;;;;;;8.10;4.27;;;1.70;31.00;;;;;;4954680;28;20458;-52
2022/03/30 01:04:46;;;;;;;10.37;4.20;;;1.70;24.10;;;;;;4947976;29;20983;-51
2022/03/30 01:07:13;;;;;;;9.30;4.23;;;1.60;26.10;;;;;;4952413;28;20880;-52
2022/03/30 01:09:40;;;;;;;5.00;3.10;;;1.50;24.20;;;;;;4950897;29;21018;-51
2022/03/30 01:12:10;;;;;;;9.50;4.00;;;1.50;24.20;;;;;;4955621;28;20494;-51
2022/03/30 01:14:37;;;;;;;21.67;3.93;;;1.40;20.80;;;;;;4951731;28;20980;-52
2022/03/30 01:17:05;;;;;;;11.80;4.40;;;1.50;20.60;;;;;;4946789;28;21031;-51
2022/03/30 01:19:34;;;;;;;9.03;4.20;;;1.50;20.30;;;;;;4953143;29;20537;-49
2022/03/30 01:22:02;;;;;;;8.90;4.53;;;1.50;20.20;;;;;;4948617;28;20964;-49
2022/03/30 01:24:28;;;;;;;9.27;4.87;;;1.60;99.90;;;;;;4943236;29;20482;-49
2022/03/30 01:26:55;;;;;;;21.27;4.73;;;1.70;23.30;;;;;;4954556;29;20485;-49
2022/03/30 01:32:28;;;;;;;8.50;4.30;;;1.90;26.30;;;;;;4954682;28;20869;-49
2022/03/30 01:34:56;;;;;;;8.67;4.37;;;1.90;26.20;;;;;;4955034;29;20494;-49
2022/03/30 01:37:25;;;;;;;10.53;4.20;;;2.00;23.50;;;;;;4953483;28;20485;-49
2022/03/30 01:39:52;;;;;;;11.00;4.20;;;2.10;23.90;;;;;;4948126;28;20465;-49
2022/03/30 01:42:19;;;;;;;13.93;4.40;;;2.10;25.60;;;;;;4953190;28;20502;-50
2022/03/30 01:44:45;;;;;;;12.60;4.80;;;2.10;23.60;;;;;;4955046;28;20549;-50
2022/03/30 01:47:13;;;;;;;8.43;4.20;;;2.10;28.00;;;;;;4952469;28;20916;-50
2022/03/30 01:49:41;;;;;;;12.43;4.47;;;2.10;27.40;;;;;;4957831;28;20552;-50
2022/03/30 01:52:09;;;;;;;8.23;4.00;;;2.20;30.20;;;;;;4950752;28;20471;-50
2022/03/30 01:54:38;;;;;;;6.23;4.70;;;2.10;31.30;;;;;;4936547;29;20498;-50
2022/03/30 01:57:06;;;;;;;8.10;3.43;;;2.10;28.50;;;;;;4957129;28;20486;-49
2022/03/30 01:59:34;;;;;;;8.53;4.67;;;2.00;26.70;;;;;;4948850;29;20514;-50
2022/03/30 02:02:02;;;;;;;8.83;3.70;;;2.00;27.70;;;;;;4942367;28;20498;-49
2022/03/30 02:04:29;;;;;;;10.90;3.40;;;2.00;23.80;;;;;;4947214;28;20957;-50
2022/03/30 02:06:55;;;;;;;9.90;3.53;;;2.00;28.50;;;;;;4963197;23;20950;-50
2022/03/30 02:09:22;;;;;;;9.30;4.30;;;2.00;25.60;;;;;;4949551;29;20525;-51
2022/03/30 02:11:50;;;;;;;10.07;4.80;;;2.00;23.30;;;;;;4952776;28;20549;-50
2022/03/30 02:14:17;;;;;;;8.70;3.50;;;2.00;21.70;;;;;;4955543;29;20531;-50
2022/03/30 02:16:44;;;;;;;14.67;4.30;;;2.00;23.30;;;;;;4954996;28;20608;-50
2022/03/30 02:19:12;;;;;;;12.27;5.23;;;2.00;24.50;;;;;;4954861;29;20446;-50
2022/03/30 02:21:38;;;;;;;10.77;4.53;;;2.10;99.90;;;;;;4944764;29;20467;-51
2022/03/30 02:24:06;;;;;;;10.20;3.87;;;2.10;21.90;;;;;;4953621;29;20971;-51
2022/03/30 02:26:33;;;;;;;12.30;4.87;;;2.10;22.10;;;;;;4947955;28;20486;-51
2022/03/30 02:29:01;;;;;;;7.23;4.30;;;2.20;24.80;;;;;;4953332;29;20470;-50
2022/03/30 02:31:27;;;;;;;10.73;4.57;;;2.20;25.40;;;;;;4948683;28;20545;-50
2022/03/30 02:33:54;;;;;;;7.40;3.80;;;2.20;26.50;;;;;;4948590;28;20495;-50
2022/03/30 02:36:20;;;;;;;7.50;4.10;;;2.30;27.40;;;;;;4947752;29;20509;-50
2022/03/30 02:38:47;;;;;;;17.27;5.00;;;2.30;25.70;;;;;;4945301;28;20494;-50
2022/03/30 02:41:13;;;;;;;8.47;3.50;;;2.30;22.90;;;;;;4948012;29;20530;-51
2022/03/30 02:43:40;;;;;;;8.47;4.00;;;2.20;23.80;;;;;;4947947;29;20482;-51
2022/03/30 02:46:08;;;;;;;8.07;3.80;;;2.20;22.70;;;;;;4944593;28;20463;-50
2022/03/30 02:48:37;;;;;;;10.13;4.80;;;2.10;21.50;;;;;;4943150;29;20573;-50
2022/03/30 02:51:05;;;;;;;14.00;4.50;;;2.10;21.10;;;;;;4951905;28;20470;-51
2022/03/30 02:53:32;;;;;;;11.60;4.70;;;2.10;79.30;;;;;;4951564;29;20973;-51
2022/03/30 02:55:59;;;;;;;10.47;4.20;;;2.10;20.50;;;;;;4948415;28;20549;-51
2022/03/30 02:58:26;;;;;;;12.60;4.73;;;2.00;24.20;;;;;;4949143;29;20470;-50
2022/03/30 03:00:54;;;;;;;8.80;4.10;;;2.00;21.50;;;;;;4951584;28;21007;-50
2022/03/30 03:03:23;;;;;;;8.57;4.40;;;2.00;23.00;;;;;;4947598;29;20502;-50
2022/03/30 03:05:49;;;;;;;13.60;4.87;;;2.00;83.00;;;;;;4944523;29;20482;-50
2022/03/30 03:08:16;;;;;;;9.33;4.70;;;1.90;99.90;;;;;;4953141;28;20521;-50
2022/03/30 03:10:45;;;;;;;6.97;3.97;;;1.90;99.90;;;;;;4950599;28;21035;-50
2022/03/30 03:13:13;;;;;;;8.27;4.03;;;1.90;99.90;;;;;;4951689;28;20561;-50
2022/03/30 03:15:40;;;;;;;10.70;4.60;;;1.90;99.90;;;;;;4952207;29;20466;-50
2022/03/30 03:18:07;;;;;;;9.70;4.73;;;1.80;99.90;;;;;;4953055;29;20521;-51
2022/03/30 03:20:35;;;;;;;13.33;4.30;;;1.80;99.90;;;;;;4951837;28;20502;-52
2022/03/30 03:23:03;;;;;;;12.23;6.07;;;1.80;99.90;;;;;;4950612;28;20979;-50
2022/03/30 03:25:32;;;;;;;11.57;4.40;;;1.70;99.90;;;;;;4951939;29;20908;-50
2022/03/30 03:27:59;;;;;;;7.37;4.07;;;1.80;99.90;;;;;;4951835;29;20979;-50
2022/03/30 03:30:26;;;;;;;10.07;4.00;;;1.80;99.90;;;;;;4944154;29;21016;-51
2022/03/30 03:32:52;;;;;;;12.80;4.67;;;1.80;99.90;;;;;;4954071;29;20482;-51
2022/03/30 03:35:20;;;;;;;9.00;4.00;;;1.80;99.90;;;;;;4944647;28;20499;-51
2022/03/30 03:37:47;;;;;;;9.93;3.70;;;1.70;99.90;;;;;;4953181;29;20566;-50
2022/03/30 03:40:14;;;;;;;14.90;5.07;;;1.70;99.90;;;;;;4952510;29;20513;-51
2022/03/30 03:42:41;;;;;;;8.83;3.80;;;1.80;99.90;;;;;;4953639;29;20489;-50
2022/03/30 03:45:08;;;;;;;14.23;4.00;;;1.80;99.90;;;;;;4951367;29;21087;-51
2022/03/30 03:47:35;;;;;;;10.73;3.77;;;1.80;99.90;;;;;;4948003;28;20572;-51
2022/03/30 03:50:02;;;;;;;9.30;4.43;;;1.80;99.90;;;;;;4950266;29;20490;-50
2022/03/30 03:52:28;;;;;;;8.23;4.17;;;1.70;99.90;;;;;;4952228;29;20462;-51
2022/03/30 03:54:56;;;;;;;14.53;4.80;;;1.70;99.90;;;;;;4951960;29;20558;-50
2022/03/30 03:57:23;;;;;;;11.53;4.40;;;1.60;99.90;;;;;;4943963;28;20530;-51
2022/03/30 03:59:49;;;;;;;8.07;3.53;;;1.50;99.90;;;;;;4948022;29;20490;-51
2022/03/30 04:02:16;;;;;;;7.17;3.50;;;1.50;99.90;;;;;;4935969;29;20503;-51
2022/03/30 04:04:44;;;;;;;10.47;3.73;;;1.40;99.90;;;;;;4935099;29;20905;-51
2022/03/30 04:07:10;;;;;;;10.90;3.97;;;1.40;99.90;;;;;;4948982;29;20596;-51
2022/03/30 04:09:37;;;;;;;9.73;4.10;;;1.40;99.90;;;;;;4951728;28;20509;-52
2022/03/30 04:12:06;;;;;;;6.57;3.87;;;1.50;99.90;;;;;;4950674;29;20546;-51
2022/03/30 04:14:33;;;;;;;14.20;4.37;;;1.40;99.90;;;;;;4946737;29;20502;-51
2022/03/30 04:17:00;;;;;;;9.70;4.60;;;1.50;99.90;;;;;;4939800;29;20533;-50
2022/03/30 04:19:26;;;;;;;12.77;4.97;;;1.60;99.90;;;;;;4939810;29;20569;-49
2022/03/30 04:21:53;;;;;;;9.50;5.83;;;1.60;99.90;;;;;;4949120;29;20565;-50
2022/03/30 04:24:20;;;;;;;10.93;5.60;;;1.80;99.90;;;;;;4946271;28;20557;-51
2022/03/30 04:26:47;;;;;;;14.87;4.97;;;1.90;99.90;;;;;;4948481;28;20524;-51
2022/03/30 04:29:14;;;;;;;6.90;4.50;;;1.90;99.90;;;;;;4947444;28;20529;-50
2022/03/30 04:31:41;;;;;;;13.20;4.70;;;1.90;99.90;;;;;;4949517;28;20506;-51
2022/03/30 04:34:08;;;;;;;10.30;4.60;;;1.90;99.90;;;;;;4945044;28;20552;-50
2022/03/30 04:36:34;;;;;;;12.13;4.33;;;1.90;99.90;;;;;;4947967;28;20549;-51
2022/03/30 04:39:01;;;;;;;15.47;4.63;;;1.90;99.90;;;;;;4950360;28;20541;-50
2022/03/30 04:41:28;;;;;;;9.40;4.97;;;1.90;99.90;;;;;;4951502;28;20884;-50
2022/03/30 04:43:54;;;;;;;9.00;4.10;;;1.90;99.90;;;;;;4948571;28;20498;-51
2022/03/30 04:46:22;;;;;;;15.13;4.63;;;1.90;99.90;;;;;;4951887;28;20493;-51
2022/03/30 04:48:49;;;;;;;7.67;4.00;;;1.90;99.90;;;;;;4941360;28;20941;-50
2022/03/30 04:51:15;;;;;;;19.17;11.77;;;2.00;99.90;;;;;;4950560;28;20971;-51
2022/03/30 04:53:42;;;;;;;12.90;7.77;;;1.90;99.90;;;;;;4949882;28;20502;-51
2022/03/30 04:56:08;;;;;;;13.70;9.20;;;1.90;99.90;;;;;;4949531;28;21043;-52
2022/03/30 04:58:35;;;;;;;15.20;5.33;;;1.90;99.90;;;;;;4948656;28;20454;-51
2022/03/30 05:01:01;;;;;;;8.23;5.63;;;1.90;99.90;;;;;;4946852;28;20502;-50
2022/03/30 05:03:29;;;;;;;23.13;12.30;;;1.90;99.90;;;;;;4952621;28;20494;-50
2022/03/30 05:05:56;;;;;;;45.30;23.13;;;1.90;99.90;;;;;;4944741;28;20470;-50
2022/03/30 05:08:23;;;;;;;33.57;16.40;;;1.90;99.90;;;;;;4951097;28;20525;-50
2022/03/30 05:10:50;;;;;;;39.35;23.40;;;1.90;99.90;;;;;;4950487;28;20487;-51
2022/03/30 05:13:16;;;;;;;35.57;17.90;;;1.90;99.90;;;;;;4948676;28;20207;-53
2022/03/30 05:15:43;;;;;;;27.80;16.73;;;2.00;99.90;;;;;;4953500;28;20497;-51
2022/03/30 05:18:11;;;;;;;26.80;16.97;;;2.00;99.90;;;;;;4955328;29;20538;-51
2022/03/30 05:20:43;;;;;;;18.83;12.00;;;2.00;99.90;;;;;;4951769;28;20502;-51
2022/03/30 05:23:09;;;;;;;19.00;11.00;;;2.00;99.90;;;;;;4951999;28;20493;-51
2022/03/30 05:25:37;;;;;;;26.80;12.70;;;2.00;99.90;;;;;;4949949;28;20546;-51
2022/03/30 05:28:04;;;;;;;19.60;12.03;;;2.00;99.90;;;;;;4951423;28;20836;-50
2022/03/30 05:30:30;;;;;;;19.87;9.20;;;2.00;99.90;;;;;;4946515;28;20550;-50
2022/03/30 05:32:57;;;;;;;25.30;8.60;;;2.10;99.90;;;;;;4948040;28;20550;-50
2022/03/30 05:35:23;;;;;;;20.40;7.10;;;2.20;99.90;;;;;;4949448;28;20537;-51
2022/03/30 05:37:51;;;;;;;15.70;6.40;;;2.30;99.90;;;;;;4953477;28;20533;-50
2022/03/30 05:40:18;;;;;;;10.90;6.53;;;2.30;99.90;;;;;;4951892;28;20493;-50
2022/03/30 05:42:45;;;;;;;14.37;7.70;;;2.40;99.90;;;;;;4951982;28;20477;-50
2022/03/30 05:45:11;;;;;;;12.10;7.10;;;2.50;99.90;;;;;;4950658;28;20498;-51
2022/03/30 05:47:38;;;;;;;11.03;6.60;;;2.50;99.90;;;;;;4954373;28;20582;-51
2022/03/30 05:50:07;;;;;;;15.93;6.30;;;2.60;99.90;;;;;;4952975;28;20913;-50
2022/03/30 05:52:34;;;;;;;30.37;6.50;;;2.80;99.90;;;;;;4934593;28;20470;-51
2022/03/30 05:55:01;;;;;;;20.57;6.07;;;2.90;99.90;;;;;;4942302;28;20549;-51
2022/03/30 05:57:28;;;;;;;22.30;5.53;;;3.10;99.90;;;;;;4953144;28;20594;-51
2022/03/30 05:59:55;;;;;;;19.90;5.30;;;3.20;99.90;;;;;;4953536;28;20474;-50
2022/03/30 06:02:21;;;;;;;15.30;5.20;;;3.30;23.20;;;;;;4939801;28;20604;-51
2022/03/30 06:04:49;;;;;;;15.50;8.00;;;3.40;23.60;;;;;;4954095;28;20462;-52
2022/03/30 06:07:16;;;;;;;24.43;6.50;;;3.40;95.00;;;;;;4954037;29;20492;-50
2022/03/30 06:09:43;;;;;;;18.20;8.90;;;3.50;22.40;;;;;;4953458;28;20569;-50
2022/03/30 06:12:11;;;;;;;18.77;9.07;;;3.70;26.50;;;;;;4948934;28;20466;-51
2022/03/30 06:14:37;;;;;;;15.27;9.53;;;3.80;28.70;;;;;;4953791;28;20467;-51
2022/03/30 06:17:05;;;;;;;28.23;11.43;;;3.80;30.80;;;;;;4953739;28;20498;-50
2022/03/30 06:19:33;;;;;;;19.53;7.33;;;3.80;39.60;;;;;;4950671;28;20553;-51
2022/03/30 06:22:01;;;;;;;16.17;7.57;;;3.90;36.20;;;;;;4952834;28;20804;-51
2022/03/30 06:24:27;;;;;;;17.23;7.67;;;4.00;38.90;;;;;;4952650;28;20489;-51
2022/03/30 06:26:54;;;;;;;14.63;7.00;;;4.10;40.10;;;;;;4953983;28;20478;-51
2022/03/30 06:29:22;;;;;;;16.97;5.10;;;4.10;41.80;;;;;;4950956;28;20578;-50
2022/03/30 06:31:48;;;;;;;20.67;6.87;;;4.20;47.80;;;;;;4947122;28;20498;-51
2022/03/30 06:34:15;;;;;;;20.20;6.07;;;4.30;54.30;;;;;;4953684;28;20486;-53
2022/03/30 06:36:41;;;;;;;17.00;4.87;;;4.30;55.30;;;;;;4956508;28;20574;-53
2022/03/30 06:39:09;;;;;;;11.80;5.10;;;4.40;62.80;;;;;;4952583;28;20845;-53
2022/03/30 06:41:36;;;;;;;12.07;4.10;;;4.50;62.90;;;;;;4952932;28;20471;-53
2022/03/30 06:44:02;;;;;;;17.50;4.43;;;4.50;64.30;;;;;;4950022;28;20494;-53
2022/03/30 06:46:33;;;;;;;7.53;3.40;;;4.60;65.10;;;;;;4951233;28;20518;-53
2022/03/30 06:49:01;;;;;;;11.27;4.23;;;4.60;72.80;;;;;;4948342;28;20497;-53
2022/03/30 06:51:27;;;;;;;14.20;4.23;;;4.70;72.70;;;;;;4954100;28;20900;-53
2022/03/30 06:53:54;;;;;;;11.67;4.37;;;4.80;71.60;;;;;;4952164;28;20505;-52
2022/03/30 06:56:20;;;;;;;12.47;4.13;;;4.90;77.10;;;;;;4952728;28;20501;-53
2022/03/30 06:58:47;;;;;;;10.20;3.20;;;5.00;76.60;;;;;;4951745;28;20490;-52
2022/03/30 07:01:15;;;;;;;16.47;3.90;;;5.10;80.00;;;;;;4947945;28;20506;-53
2022/03/30 07:03:43;;;;;;;7.73;3.90;;;5.20;81.30;;;;;;4950621;28;20475;-53
2022/03/30 07:06:10;;;;;;;10.17;3.00;;;5.30;84.10;;;;;;4949771;28;21084;-54
2022/03/30 07:11:21;;;;;;;14.07;3.73;;;5.70;93.10;;;;;;4951716;28;21399;-53
2022/03/30 07:13:48;;;;;;;9.10;3.27;;;5.70;97.50;;;;;;4952335;28;20470;-53
2022/03/30 07:16:15;;;;;;;22.73;3.70;;;5.90;94.30;;;;;;4955631;28;20561;-53
2022/03/30 07:18:43;;;;;;;19.03;3.87;;;6.10;92.70;;;;;;4949660;28;20463;-53
2022/03/30 07:21:09;;;;;;;13.10;3.43;;;6.10;99.90;;;;;;4950676;28;20554;-53
2022/03/30 07:23:36;;;;;;;6.73;2.70;;;6.30;99.90;;;;;;4945211;28;20549;-53
2022/03/30 07:26:04;;;;;;;7.83;3.30;;;6.30;99.90;;;;;;4947221;28;20558;-53
2022/03/30 07:28:31;;;;;;;26.20;4.00;;;6.50;99.90;;;;;;4949068;28;20498;-53
2022/03/30 07:30:58;;;;;;;13.27;3.00;;;6.60;99.90;;;;;;4951708;28;20447;-52
2022/03/30 07:33:24;;;;;;;47.57;5.30;;;6.80;99.90;;;;;;4950974;28;20559;-52
2022/03/30 07:35:52;;;;;;;16.50;5.00;;;7.20;99.90;;;;;;4961206;28;20544;-52
2022/03/30 07:38:20;;;;;;;9.90;2.87;;;7.40;99.90;;;;;;4953255;28;20521;-52
2022/03/30 07:40:50;;;;;;;11.63;3.10;;;7.60;99.90;;;;;;4950056;28;20501;-53
2022/03/30 07:43:18;;;;;;;23.13;3.73;;;7.70;99.90;;;;;;4951886;28;20468;-51
2022/03/30 07:45:44;;;;;;;11.83;3.17;;;7.60;99.90;;;;;;4956320;28;20463;-54
2022/03/30 07:48:12;;;;;;;19.27;2.97;;;7.70;99.90;;;;;;4953275;28;20504;-52
2022/03/30 07:50:39;;;;;;;10.63;2.63;;;7.90;99.90;;;;;;4959409;28;20589;-52
2022/03/30 07:53:08;;;;;;;6.23;2.67;;;8.10;99.90;;;;;;4953991;28;20557;-52
2022/03/30 07:55:34;;;;;;;21.00;5.30;;;8.30;99.90;;;;;;4952379;28;20474;-51
2022/03/30 07:58:01;;;;;;;10.27;2.83;;;8.50;99.90;;;;;;4953755;28;21030;-53
2022/03/30 08:00:29;;;;;;;27.43;4.67;;;8.70;99.90;;;;;;4945087;28;20557;-53
2022/03/30 08:02:56;;;;;;;11.60;4.37;;;8.30;99.90;;;;;;4942314;28;20606;-53
2022/03/30 08:05:22;;;;;;;11.50;3.33;;;8.60;99.90;;;;;;4949956;28;20505;-51
2022/03/30 08:07:49;;;;;;;5.33;2.47;;;8.30;99.90;;;;;;4950057;28;20478;-52
2022/03/30 08:10:18;;;;;;;8.00;2.73;;;8.50;99.90;;;;;;4948908;28;20490;-53
2022/03/30 08:12:46;;;;;;;12.73;3.10;;;8.40;99.90;;;;;;4951422;29;20490;-52
2022/03/30 08:15:13;;;;;;;6.80;3.27;;;8.40;99.90;;;;;;4950810;29;20454;-53
2022/03/30 08:17:40;;;;;;;27.53;4.13;;;8.50;99.90;;;;;;4951834;28;20522;-53
2022/03/30 08:20:08;;;;;;;14.93;4.50;;;8.60;99.90;;;;;;4949396;29;20486;-53
2022/03/30 08:22:34;;;;;;;8.73;3.97;;;8.50;99.90;;;;;;4948844;29;20933;-53
2022/03/30 08:25:02;;;;;;;15.87;3.83;;;8.60;99.90;;;;;;4953148;29;20453;-53
2022/03/30 08:27:32;;;;;;;20.00;3.20;;;8.60;99.90;;;;;;4952701;28;20740;-52
2022/03/30 08:29:59;;;;;;;18.53;2.50;;;9.00;99.90;;;;;;4952260;29;21122;-53
2022/03/30 08:32:27;;;;;;;5.70;2.93;;;9.00;99.90;;;;;;4953266;29;20466;-53
2022/03/30 08:34:55;;;;;;;9.47;3.23;;;9.10;99.90;;;;;;4952785;29;20489;-53
2022/03/30 08:37:23;;;;;;;10.33;4.37;;;9.10;99.90;;;;;;4944567;29;20579;-53
2022/03/30 08:39:50;;;;;;;7.13;3.33;;;9.10;99.90;;;;;;4952501;29;20483;-52
2022/03/30 08:42:18;;;;;;;7.00;2.97;;;9.30;99.90;;;;;;4952860;29;20465;-53
2022/03/30 08:44:47;;;;;;;14.40;2.80;;;9.30;99.90;;;;;;4952845;29;21025;-52
2022/03/30 08:47:14;;;;;;;12.20;3.40;;;9.80;99.90;;;;;;4951792;28;20565;-53
2022/03/30 08:49:42;;;;;;;7.37;2.90;;;9.70;99.90;;;;;;4954939;28;20593;-53
2022/03/30 08:52:11;;;;;;;7.70;3.20;;;9.60;99.90;;;;;;4957030;29;20545;-53
2022/03/30 08:54:42;;;;;;;9.23;4.23;;;8.40;99.90;;;;;;4955683;29;20454;-53
2022/03/30 08:57:09;;;;;;;7.87;2.90;;;8.70;99.90;;;;;;4956677;29;20466;-52
2022/03/30 08:59:36;;;;;;;10.50;3.30;;;9.00;99.90;;;;;;4955810;29;21044;-53
2022/03/30 09:02:04;;;;;;;7.00;2.73;;;9.00;99.90;;;;;;4956295;29;20478;-52
2022/03/30 09:04:31;;;;;;;7.80;2.93;;;9.10;99.90;;;;;;4956857;29;20569;-52
2022/03/30 09:06:59;;;;;;;6.67;3.13;;;9.30;99.90;;;;;;4956126;28;20570;-52
2022/03/30 09:09:32;;;;;;;12.20;3.70;;;9.60;99.90;;;;;;4955905;29;20556;-52
2022/03/30 09:12:00;;;;;;;7.10;3.30;;;9.50;99.90;;;;;;4955847;29;20956;-52
2022/03/30 09:14:29;;;;;;;14.00;3.00;;;9.80;99.90;;;;;;4954623;28;20990;-53
2022/03/30 09:16:58;;;;;;;8.87;3.30;;;9.70;99.90;;;;;;4937481;29;20566;-53
2022/03/30 09:19:27;;;;;;;17.37;3.60;;;10.10;99.90;;;;;;4951154;29;20447;-54
2022/03/30 09:21:56;;;;;;;10.27;3.40;;;10.00;99.90;;;;;;4956319;29;20840;-53
2022/03/30 09:24:26;;;;;;;7.70;2.53;;;9.70;99.90;;;;;;4949484;29;20462;-52
2022/03/30 09:26:54;;;;;;;8.37;2.63;;;9.40;99.90;;;;;;4949683;29;20479;-52
2022/03/30 09:29:22;;;;;;;7.20;3.27;;;9.50;99.90;;;;;;4955307;29;20847;-53
2022/03/30 09:31:50;;;;;;;11.80;2.97;;;9.50;99.90;;;;;;4955950;28;20478;-52
2022/03/30 09:34:17;;;;;;;8.30;2.70;;;9.60;99.90;;;;;;4955356;29;20553;-52
2022/03/30 09:36:45;;;;;;;6.20;2.57;;;9.70;99.90;;;;;;4955685;28;20882;-52
2022/03/30 09:39:29;;;;;;;6.10;2.87;;;9.90;99.90;;;;;;4955199;29;20486;-53
2022/03/30 09:41:56;;;;;;;22.43;4.60;;;9.70;99.90;;;;;;4956153;29;20558;-52
2022/03/30 09:44:23;;;;;;;9.63;2.90;;;9.80;99.90;;;;;;4955319;29;20472;-53
2022/03/30 09:46:55;;;;;;;5.43;2.87;;;9.30;99.90;;;;;;4955945;28;20502;-53
2022/03/30 09:49:36;;;;;;;6.63;2.20;;;9.20;99.90;;;;;;4955141;29;20514;-53
2022/03/30 09:52:11;;;;;;;4.47;2.67;;;9.30;99.90;;;;;;4948352;28;20449;-53
2022/03/30 09:54:40;;;;;;;5.47;2.23;;;9.50;99.90;;;;;;4947845;29;20937;-52
2022/03/30 09:57:17;;;;;;;8.60;2.50;;;9.50;99.90;;;;;;4936649;29;20903;-53
2022/03/30 10:00:05;;;;;;;5.93;2.77;;;9.50;99.90;;;;;;4944398;28;20470;-52
2022/03/30 10:02:34;;;;;;;8.33;2.90;;;9.40;99.90;;;;;;4955391;29;21027;-53
2022/03/30 10:05:01;;;;;;;8.83;2.77;;;9.50;99.90;;;;;;4955928;29;20876;-52
2022/03/30 10:07:30;;;;;;;18.10;3.13;;;9.60;99.90;;;;;;4955314;28;20486;-52
2022/03/30 10:09:58;;;;;;;12.50;3.50;;;9.90;99.90;;;;;;4955019;28;20478;-53
2022/03/30 10:12:26;;;;;;;5.00;2.23;;;10.30;99.90;;;;;;4955647;28;21108;-53
2022/03/30 10:14:54;;;;;;;7.80;2.80;;;10.50;99.90;;;;;;4955786;29;20483;-53
2022/03/30 10:17:22;;;;;;;6.23;2.63;;;10.70;99.90;;;;;;4955382;29;20521;-52
2022/03/30 10:19:49;;;;;;;9.93;5.10;;;10.20;99.90;;;;;;4955079;28;20489;-55
2022/03/30 10:22:47;;;;;;;7.87;2.50;;;10.50;99.90;;;;;;4954949;29;21037;-58
2022/03/30 10:25:32;;;;;;;7.63;3.67;;;9.90;99.90;;;;;;4954363;29;20485;-52
2022/03/30 10:28:14;;;;;;;9.60;3.60;;;9.90;99.90;;;;;;4954647;29;20553;-52
2022/03/30 10:30:43;;;;;;;11.10;3.90;;;9.80;99.90;;;;;;4955144;29;20586;-53
2022/03/30 10:33:11;;;;;;;6.33;2.43;;;9.20;99.90;;;;;;4954479;29;20542;-52
2022/03/30 10:35:39;;;;;;;11.97;5.10;;;9.30;99.90;;;;;;4947712;29;21044;-53
2022/03/30 10:38:08;;;;;;;13.03;5.57;;;9.30;99.90;;;;;;4949127;29;20474;-52
2022/03/30 10:40:36;;;;;;;8.67;3.53;;;9.30;99.90;;;;;;4952239;29;20529;-52
2022/03/30 10:43:08;;;;;;;11.77;2.90;;;9.30;99.90;;;;;;4950214;29;20515;-52
2022/03/30 10:45:41;;;;;;;7.33;3.00;;;9.20;99.90;;;;;;4936046;29;20506;-53
2022/03/30 10:48:11;;;;;;;4.20;2.50;;;9.00;99.90;;;;;;4953380;28;20494;-53
2022/03/30 10:50:41;;;;;;;9.90;3.57;;;9.20;99.90;;;;;;4954963;29;20490;-53
2022/03/30 10:53:44;;;;;;;7.40;3.40;;;9.00;99.90;;;;;;4954167;29;20458;-52
2022/03/30 10:56:36;;;;;;;7.53;2.63;;;9.00;99.90;;;;;;4954456;29;21101;-52
2022/03/30 10:59:14;;;;;;;6.20;2.60;;;9.10;99.90;;;;;;4945265;29;20505;-53
2022/03/30 11:01:41;;;;;;;6.50;3.33;;;9.30;99.90;;;;;;4954741;28;20497;-53
2022/03/30 11:04:25;;;;;;;7.97;2.70;;;9.40;99.90;;;;;;4954370;29;20431;-53
2022/03/30 11:07:40;;;;;;;2.03;1.77;;;9.30;99.90;;;;;;4952872;28;20502;-52
2022/03/30 11:10:28;;;;;;;5.20;3.23;;;9.20;99.90;;;;;;4952864;29;20501;-52
2022/03/30 11:13:05;;;;;;;11.50;2.90;;;9.10;99.90;;;;;;4953053;28;20821;-52
2022/03/30 11:15:53;;;;;;;5.47;3.07;;;9.10;99.90;;;;;;4951830;29;20453;-53
2022/03/30 11:18:21;;;;;;;10.40;3.37;;;8.70;99.90;;;;;;4953744;28;20481;-52
2022/03/30 11:21:19;;;;;;;12.13;3.97;;;8.80;99.90;;;;;;4954340;29;20447;-52
2022/03/30 11:24:02;;;;;;;11.60;3.83;;;8.80;99.90;;;;;;4953724;29;20490;-52
2022/03/30 11:27:20;;;;;;;6.80;3.67;;;8.90;99.90;;;;;;4953263;29;20513;-52
2022/03/30 11:29:56;;;;;;;3.80;2.73;;;9.00;99.90;;;;;;4952580;29;20573;-53
2022/03/30 11:33:02;;;;;;;6.73;2.70;;;9.00;99.90;;;;;;4946630;29;21012;-52
2022/03/30 11:35:31;;;;;;;4.93;2.47;;;9.10;99.90;;;;;;4944980;29;20455;-53
2022/03/30 11:38:11;;;;;;;2.77;2.03;;;8.90;99.90;;;;;;4940390;28;20478;-53
2022/03/30 11:40:41;;;;;;;6.00;3.33;;;9.00;99.90;;;;;;4951731;29;20451;-53
2022/03/30 11:43:08;;;;;;;5.47;2.70;;;9.00;99.90;;;;;;4952764;29;20492;-52
2022/03/30 11:45:36;;;;;;;5.23;3.27;;;9.00;99.90;;;;;;4954001;29;20883;-52
2022/03/30 11:48:06;;;;;;;11.93;3.13;;;8.90;99.90;;;;;;4953257;29;21020;-52
2022/03/30 11:50:34;;;;;;;9.43;3.00;;;8.90;99.90;;;;;;4953372;29;20500;-53
2022/03/30 11:53:05;;;;;;;6.50;3.17;;;8.80;99.90;;;;;;4952556;29;20446;-53
2022/03/30 11:55:35;;;;;;;5.60;2.60;;;8.60;99.90;;;;;;4951146;28;20450;-52
2022/03/30 11:58:02;;;;;;;6.83;2.77;;;8.60;99.90;;;;;;4953329;28;20474;-52
2022/03/30 12:00:31;;;;;;;7.40;3.03;;;8.70;99.90;;;;;;4951219;29;20502;-52
2022/03/30 12:03:00;;;;;;;3.20;1.93;;;8.70;99.90;;;;;;4945872;29;20451;-53
2022/03/30 12:05:27;;;;;;;4.93;2.70;;;8.70;99.90;;;;;;4953582;29;20486;-53
2022/03/30 12:07:55;;;;;;;7.63;2.87;;;8.70;99.90;;;;;;4953069;28;20568;-52
2022/03/30 12:10:30;;;;;;;6.20;2.57;;;8.70;99.90;;;;;;4953074;29;20647;-53
2022/03/30 12:12:57;;;;;;;5.13;2.07;;;8.70;99.90;;;;;;4952999;29;20541;-53
2022/03/30 12:15:24;;;;;;;8.50;2.77;;;8.70;99.90;;;;;;4943883;29;20550;-51
2022/03/30 12:17:53;;;;;;;5.73;2.80;;;8.70;99.90;;;;;;4952569;28;20478;-53
2022/03/30 12:20:26;;;;;;;14.70;3.80;;;8.80;99.90;;;;;;4953721;29;20477;-53
2022/03/30 12:23:01;;;;;;;9.83;2.70;;;8.80;99.90;;;;;;4953701;28;20477;-52
2022/03/30 12:25:30;;;;;;;9.73;2.80;;;8.90;99.90;;;;;;4957165;29;20532;-52
2022/03/30 12:27:58;;;;;;;8.20;2.80;;;9.00;99.90;;;;;;4957200;28;20682;-53
2022/03/30 12:30:26;;;;;;;7.67;2.80;;;9.10;99.90;;;;;;4956850;28;20489;-53
2022/03/30 12:32:53;;;;;;;4.67;2.70;;;9.10;99.90;;;;;;4957345;29;20963;-52
2022/03/30 12:35:20;;;;;;;14.63;2.90;;;9.10;99.90;;;;;;4956836;29;20968;-52
2022/03/30 12:37:49;;;;;;;5.40;2.13;;;9.20;99.90;;;;;;4957100;28;20466;-53
2022/03/30 12:40:20;;;;;;;6.90;3.07;;;9.30;99.90;;;;;;4956807;29;20457;-52
2022/03/30 12:42:49;;;;;;;5.70;2.40;;;9.40;99.90;;;;;;4957040;29;20490;-53
2022/03/30 12:45:17;;;;;;;9.13;2.90;;;9.50;99.90;;;;;;4957410;29;20537;-53
2022/03/30 12:47:51;;;;;;;9.10;2.93;;;9.70;99.90;;;;;;4955293;28;20541;-53
2022/03/30 12:50:23;;;;;;;3.40;2.40;;;9.70;99.90;;;;;;4957013;29;20489;-53
2022/03/30 12:52:53;;;;;;;4.07;2.83;;;9.70;99.90;;;;;;4956851;29;20976;-52
2022/03/30 12:55:27;;;;;;;3.87;2.27;;;9.60;99.90;;;;;;4956539;29;20482;-53
2022/03/30 12:57:58;;;;;;;3.30;2.47;;;9.80;99.90;;;;;;4955142;29;20528;-53
2022/03/30 13:00:29;;;;;;;7.90;2.93;;;9.80;99.90;;;;;;4955592;29;20568;-53
2022/03/30 13:03:13;;;;;;;5.17;2.50;;;9.80;99.90;;;;;;4956321;29;20455;-52
2022/03/30 13:05:42;;;;;;;10.40;3.10;;;9.60;99.90;;;;;;4951217;29;20458;-52